Time;durP1;ratioP1;P1;durP2;ratioP2;P2;SDS_P1;SDS_P2;PMS_P1;PMS_P2;Temp;Humidity;BMP_temperature;BMP_pressure;BME280_temperature;BME280_humidity;BME280_pressure;Samples;Min_cycle;Max_cycle;Signal;HPM_P1;HPM_P2
2022/02/06 00:02:29;;;;;;;19.63;9.98;;;;;;;4.98;56.75;99827.63;4958237;28;20518;-74
2022/02/06 00:04:57;;;;;;;14.27;8.60;;;;;;;4.98;56.68;99818.97;4985560;28;20100;-74
2022/02/06 00:07:24;;;;;;;16.05;7.80;;;;;;;4.96;56.81;99815.59;4994369;28;20096;-74
2022/02/06 00:09:52;;;;;;;18.83;7.65;;;;;;;4.95;56.64;99816.50;4998254;28;20088;-76
2022/02/06 00:12:19;;;;;;;19.15;9.32;;;;;;;4.94;56.75;99814.84;5030735;28;20133;-75
2022/02/06 00:14:47;;;;;;;26.90;9.30;;;;;;;4.90;56.67;99813.31;5037872;28;20084;-74
2022/02/06 00:17:14;;;;;;;16.38;7.53;;;;;;;4.91;56.70;99812.38;5038351;28;20144;-71
2022/02/06 00:19:43;;;;;;;17.63;8.35;;;;;;;4.94;56.68;99807.81;5036077;28;20041;-75
2022/02/06 00:22:13;;;;;;;16.05;9.38;;;;;;;4.94;56.53;99801.75;5037278;28;20107;-74
2022/02/06 00:24:45;;;;;;;16.90;7.28;;;;;;;4.93;56.54;99795.69;5034886;28;20191;-75
2022/02/06 00:27:26;;;;;;;17.55;7.57;;;;;;;4.95;56.42;99796.44;5037701;28;20084;-74
2022/02/06 00:29:58;;;;;;;17.95;8.98;;;;;;;4.94;56.37;99796.50;5042688;28;20045;-74
2022/02/06 00:32:32;;;;;;;16.38;6.40;;;;;;;4.95;56.43;99796.44;5040578;28;20429;-72
2022/02/06 00:40:41;;;;;;;14.80;7.13;;;;;;;5.02;56.29;99785.59;4995933;28;20661;-71
2022/02/06 00:43:10;;;;;;;17.70;7.60;;;;;;;5.10;56.06;99778.16;4996047;28;20089;-77
2022/02/06 00:45:38;;;;;;;20.55;7.80;;;;;;;5.13;56.13;99778.84;4997170;28;20129;-75
2022/02/06 00:48:05;;;;;;;13.35;6.78;;;;;;;5.16;55.93;99773.41;4996396;28;20550;-74
2022/02/06 00:50:35;;;;;;;16.33;9.52;;;;;;;5.19;55.80;99776.81;5000570;28;20174;-77
2022/02/06 00:53:06;;;;;;;18.25;8.18;;;;;;;5.24;55.71;99770.38;4998892;28;20129;-76
2022/02/06 00:55:33;;;;;;;16.85;8.85;;;;;;;5.26;55.60;99767.66;4997818;28;20543;-78
2022/02/06 00:58:00;;;;;;;12.35;6.93;;;;;;;5.31;55.48;99763.84;4996168;28;20085;-74
2022/02/06 01:00:29;;;;;;;15.13;8.20;;;;;;;5.34;55.45;99766.25;4987594;28;20050;-75
2022/02/06 01:02:56;;;;;;;14.57;6.82;;;;;;;5.37;55.36;99760.00;4988357;28;20081;-72
2022/02/06 01:05:23;;;;;;;10.45;5.13;;;;;;;5.44;55.32;99756.09;4994174;28;20084;-75
2022/02/06 01:07:51;;;;;;;18.45;6.72;;;;;;;5.44;55.29;99745.63;4998536;28;20597;-75
2022/02/06 01:10:18;;;;;;;12.23;7.60;;;;;;;5.43;55.29;99749.16;4999547;28;20054;-77
2022/02/06 01:12:52;;;;;;;12.02;7.30;;;;;;;5.43;55.23;99736.06;4999555;28;20070;-78
2022/02/06 01:15:23;;;;;;;13.68;7.43;;;;;;;5.39;55.14;99737.19;5025426;28;20055;-75
2022/02/06 01:17:56;;;;;;;11.75;6.15;;;;;;;5.43;55.16;99730.81;5043519;28;20051;-75
2022/02/06 01:20:29;;;;;;;13.43;6.07;;;;;;;5.44;55.23;99732.53;5039771;28;20478;-77
2022/02/06 01:23:00;;;;;;;12.25;6.07;;;;;;;5.42;55.08;99729.16;5036621;28;20115;-72
2022/02/06 01:25:31;;;;;;;14.15;7.68;;;;;;;5.43;55.08;99720.34;5040860;28;20054;-76
2022/02/06 01:28:05;;;;;;;16.95;6.57;;;;;;;5.45;55.10;99715.84;5039229;28;20060;-74
2022/02/06 01:30:43;;;;;;;13.93;7.55;;;;;;;5.47;54.94;99711.38;5037169;28;20045;-77
2022/02/06 01:33:15;;;;;;;12.57;7.43;;;;;;;5.52;54.88;99704.06;5040641;28;20059;-75
2022/02/06 01:35:48;;;;;;;14.02;6.22;;;;;;;5.52;54.86;99698.84;5047433;28;20045;-74
2022/02/06 01:38:20;;;;;;;19.45;7.72;;;;;;;5.49;54.74;99691.19;5048660;28;20053;-75
2022/02/06 01:41:02;;;;;;;11.02;7.00;;;;;;;5.47;54.80;99685.16;5045740;28;20045;-75
2022/02/06 01:43:37;;;;;;;15.52;7.15;;;;;;;5.45;54.81;99679.19;5046329;28;20034;-75
2022/02/06 01:46:20;;;;;;;9.43;5.07;;;;;;;5.44;54.82;99680.13;5048755;28;20029;-72
2022/02/06 01:57:28;;;;;;;15.65;6.40;;;;;;;5.33;54.88;99679.91;5051326;28;20045;-71
2022/02/06 02:02:56;;;;;;;10.75;6.03;;;;;;;5.36;54.86;99659.63;5052612;28;20045;-75
2022/02/06 02:08:37;;;;;;;15.25;5.72;;;;;;;5.40;54.83;99643.75;5051392;28;20064;-75
2022/02/06 02:11:38;;;;;;;8.60;5.90;;;;;;;5.42;54.75;99640.09;5049887;28;20084;-72
2022/02/06 02:14:19;;;;;;;11.63;5.90;;;;;;;5.40;54.80;99639.34;5051884;28;20050;-76
2022/02/06 02:17:12;;;;;;;16.17;7.57;;;;;;;5.33;54.76;99638.03;5051970;28;20138;-73
2022/02/06 02:22:46;;;;;;;14.13;7.90;;;;;;;5.38;54.88;99625.50;5053526;28;20068;-74
2022/02/06 02:28:24;;;;;;;11.27;5.18;;;;;;;5.41;54.62;99617.47;5015935;28;20046;-70
2022/02/06 02:47:26;;;;;;;9.80;6.45;;;;;;;5.30;54.64;99581.47;4916245;29;20036;-72
2022/02/06 02:49:56;;;;;;;12.98;6.13;;;;;;;5.32;54.61;99584.00;4914411;29;20048;-70
2022/02/06 02:52:44;;;;;;;10.82;6.80;;;;;;;5.31;54.62;99588.41;4911440;29;20266;-73
2022/02/06 02:55:27;;;;;;;16.73;8.80;;;;;;;5.32;54.54;99589.22;4898054;29;20053;-76
2022/02/06 02:58:03;;;;;;;15.45;8.63;;;;;;;5.37;54.51;99592.41;4899709;29;20139;-75
2022/02/06 03:00:36;;;;;;;15.55;6.90;;;;;;;5.39;54.31;99595.75;4901622;29;20135;-74
2022/02/06 03:03:12;;;;;;;11.50;5.43;;;;;;;5.39;54.44;99595.75;4899289;29;20130;-73
2022/02/06 03:05:39;;;;;;;13.57;6.22;;;;;;;5.35;54.66;99592.50;4952645;29;20103;-74
2022/02/06 03:08:07;;;;;;;9.70;5.07;;;;;;;5.33;54.66;99585.66;4956083;29;20110;-73
2022/02/06 03:10:37;;;;;;;10.10;5.70;;;;;;;5.30;54.88;99576.22;4993539;28;20132;-75
2022/02/06 03:13:09;;;;;;;9.38;4.97;;;;;;;5.28;54.77;99574.66;5034606;28;20069;-75
2022/02/06 03:15:44;;;;;;;10.82;6.45;;;;;;;5.21;54.85;99568.09;5035718;28;20227;-77
2022/02/06 03:18:17;;;;;;;9.00;4.20;;;;;;;5.19;54.95;99569.97;5035539;28;20045;-73
2022/02/06 03:20:44;;;;;;;8.63;6.13;;;;;;;5.10;55.22;99566.97;5036140;28;20103;-76
2022/02/06 03:23:14;;;;;;;10.85;4.40;;;;;;;5.01;55.32;99572.78;5036310;28;20053;-74
2022/02/06 03:25:49;;;;;;;12.30;4.53;;;;;;;4.98;55.50;99565.94;5035527;28;20076;-77
2022/02/06 03:28:16;;;;;;;8.38;4.50;;;;;;;4.97;55.62;99560.81;5036280;28;20042;-75
2022/02/06 03:30:43;;;;;;;9.15;4.18;;;;;;;4.95;55.65;99555.66;5036838;28;20061;-80
2022/02/06 03:33:11;;;;;;;7.90;4.85;;;;;;;4.94;55.73;99548.72;5036431;28;20125;-77
2022/02/06 03:35:39;;;;;;;7.80;4.38;;;;;;;4.96;55.71;99543.41;5035145;28;20191;-74
2022/02/06 03:38:07;;;;;;;10.45;5.15;;;;;;;4.98;55.80;99538.91;5035393;28;20125;-78
2022/02/06 03:40:41;;;;;;;10.75;3.90;;;;;;;4.99;55.74;99538.00;5033207;28;20136;-70
2022/02/06 03:43:14;;;;;;;10.90;4.80;;;;;;;4.99;55.85;99535.38;5034567;28;20720;-77
2022/02/06 03:45:45;;;;;;;11.15;4.63;;;;;;;4.96;55.80;99530.31;5035020;28;20302;-76
2022/02/06 03:48:16;;;;;;;17.42;5.75;;;;;;;4.94;56.08;99527.81;5034982;28;20084;-76
2022/02/06 03:50:49;;;;;;;9.57;5.78;;;;;;;4.89;56.11;99522.00;5034883;28;20045;-73
2022/02/06 03:53:19;;;;;;;8.02;4.80;;;;;;;4.85;56.24;99509.22;5035502;28;20302;-77
2022/02/06 03:55:49;;;;;;;11.00;4.30;;;;;;;4.81;56.46;99505.09;5036605;28;20052;-75
2022/02/06 03:58:18;;;;;;;9.95;3.95;;;;;;;4.74;56.47;99495.00;5035581;28;20081;-79
2022/02/06 04:00:45;;;;;;;11.68;4.68;;;;;;;4.71;56.54;99483.88;5041443;28;20069;-76
2022/02/06 04:03:13;;;;;;;10.10;4.68;;;;;;;4.68;56.71;99474.47;5036249;28;20109;-76
2022/02/06 04:05:45;;;;;;;9.10;3.88;;;;;;;4.66;56.77;99471.06;5033978;28;20132;-75
2022/02/06 04:08:16;;;;;;;9.40;4.43;;;;;;;4.66;56.87;99475.47;5035395;28;20045;-78
2022/02/06 04:10:48;;;;;;;11.10;3.78;;;;;;;4.67;56.87;99467.53;5032676;28;20124;-72
2022/02/06 04:13:21;;;;;;;9.60;5.05;;;;;;;4.64;56.93;99462.47;5033586;28;20049;-71
2022/02/06 04:15:54;;;;;;;10.32;5.18;;;;;;;4.65;56.95;99465.94;5032968;28;20472;-76
2022/02/06 04:18:28;;;;;;;8.45;5.13;;;;;;;4.63;56.91;99455.59;5033114;28;20128;-73
2022/02/06 04:20:55;;;;;;;7.50;4.78;;;;;;;4.62;56.76;99453.88;5032772;28;20085;-77
2022/02/06 04:23:22;;;;;;;9.57;4.75;;;;;;;4.59;57.04;99456.69;5031057;28;20053;-75
2022/02/06 04:25:49;;;;;;;6.72;4.28;;;;;;;4.56;57.25;99447.25;5032823;28;20046;-78
2022/02/06 04:28:18;;;;;;;8.60;3.78;;;;;;;4.53;57.28;99439.59;5030616;28;20053;-77
2022/02/06 04:30:45;;;;;;;8.63;4.53;;;;;;;4.52;57.24;99440.53;5030126;28;20124;-77
2022/02/06 04:33:12;;;;;;;9.32;5.05;;;;;;;4.45;57.60;99435.75;5029878;28;20052;-76
2022/02/06 04:35:42;;;;;;;8.25;4.45;;;;;;;4.42;57.60;99428.13;5030558;28;20132;-76
2022/02/06 04:38:28;;;;;;;8.25;4.38;;;;;;;4.37;57.66;99423.16;5031284;28;20077;-78
2022/02/06 04:41:15;;;;;;;11.10;4.25;;;;;;;4.34;57.83;99418.09;5026412;28;20132;-76
2022/02/06 04:44:09;;;;;;;7.82;3.72;;;;;;;4.27;57.94;99422.88;5028148;28;20099;-75
2022/02/06 04:55:37;;;;;;;6.38;3.65;;;;;;;4.31;58.02;99403.44;4967205;28;20132;-78
2022/02/06 05:12:37;;;;;;;9.90;3.72;;;;;;;4.73;56.87;99369.53;4981544;28;20608;-75
2022/02/06 05:21:15;;;;;;;7.85;3.50;;;;;;;4.85;56.78;99349.63;4858744;29;20117;-73
2022/02/06 05:24:08;;;;;;;6.45;3.90;;;;;;;4.84;56.88;99345.31;4855634;29;20053;-72
2022/02/06 05:29:33;;;;;;;9.10;4.30;;;;;;;4.89;56.70;99331.00;4864359;29;20077;-75
2022/02/06 05:32:14;;;;;;;11.88;5.32;;;;;;;4.88;56.66;99323.22;4875530;29;20109;-76
2022/02/06 05:34:43;;;;;;;7.30;3.78;;;;;;;4.86;56.68;99315.50;4873880;29;20049;-74
2022/02/06 05:37:10;;;;;;;10.25;4.93;;;;;;;4.84;56.71;99316.53;4875068;29;20057;-74
2022/02/06 05:39:37;;;;;;;7.68;4.35;;;;;;;4.84;56.63;99306.06;4875232;29;20059;-73
2022/02/06 05:42:04;;;;;;;16.35;5.47;;;;;;;4.87;56.52;99316.34;4874449;29;20109;-73
2022/02/06 05:44:32;;;;;;;8.13;4.13;;;;;;;4.89;56.51;99309.22;4882067;29;20198;-76
2022/02/06 05:46:59;;;;;;;11.25;4.20;;;;;;;4.92;56.38;99311.66;4875463;29;20053;-78
2022/02/06 05:49:26;;;;;;;8.70;4.95;;;;;;;4.92;56.36;99298.56;4874380;29;20048;-79
2022/02/06 05:51:55;;;;;;;9.98;4.47;;;;;;;4.93;56.40;99297.63;4886674;29;20056;-78
2022/02/06 05:54:22;;;;;;;9.52;4.65;;;;;;;4.89;56.35;99283.06;4933989;28;20635;-81
2022/02/06 05:56:49;;;;;;;10.25;3.60;;;;;;;4.87;56.43;99274.47;4968010;28;20047;-75
2022/02/06 05:59:16;;;;;;;9.48;4.32;;;;;;;4.87;56.30;99274.47;4973041;28;20051;-78
2022/02/06 06:01:43;;;;;;;9.38;4.30;;;;;;;4.88;56.21;99281.38;4973251;28;20060;-73
2022/02/06 06:04:10;;;;;;;6.07;3.33;;;;;;;4.90;56.33;99276.91;4974707;28;20146;-79
2022/02/06 06:06:38;;;;;;;11.25;4.45;;;;;;;4.96;56.23;99273.88;5018904;28;20592;-82
2022/02/06 06:09:07;;;;;;;14.07;6.68;;;;;;;5.01;56.04;99268.34;5033572;28;20075;-75
2022/02/06 06:11:36;;;;;;;8.52;4.25;;;;;;;5.03;56.05;99267.31;5031559;28;20081;-77
2022/02/06 06:14:04;;;;;;;9.48;4.88;;;;;;;5.04;56.05;99261.16;5033312;28;20045;-74
2022/02/06 06:16:33;;;;;;;8.32;5.10;;;;;;;5.06;55.86;99267.13;5033928;28;20451;-73
2022/02/06 06:19:00;;;;;;;11.13;4.25;;;;;;;5.07;55.92;99260.91;5033224;28;20132;-73
2022/02/06 06:21:29;;;;;;;9.65;4.75;;;;;;;5.12;55.94;99258.00;5031221;28;20045;-74
2022/02/06 06:23:56;;;;;;;9.40;6.60;;;;;;;5.09;55.68;99261.66;5030262;28;20056;-75
2022/02/06 06:26:25;;;;;;;8.63;3.92;;;;;;;5.15;55.82;99248.19;5041327;28;20124;-73
2022/02/06 06:28:52;;;;;;;15.65;5.97;;;;;;;5.22;55.76;99253.00;5049454;28;20041;-74
2022/02/06 06:31:19;;;;;;;11.50;6.25;;;;;;;5.25;55.58;99247.56;5049904;28;20022;-76
2022/02/06 06:33:46;;;;;;;10.05;4.82;;;;;;;5.30;55.60;99237.63;5040538;28;20045;-74
2022/02/06 06:36:13;;;;;;;12.30;4.95;;;;;;;5.37;55.45;99246.75;5032434;28;20649;-82
2022/02/06 06:38:40;;;;;;;8.73;4.28;;;;;;;5.41;55.61;99237.75;5030115;28;20497;-73
2022/02/06 06:41:07;;;;;;;12.43;5.15;;;;;;;5.42;55.38;99242.03;5027803;28;20141;-70
2022/02/06 06:43:35;;;;;;;8.00;4.25;;;;;;;5.48;55.44;99233.75;5030747;28;20055;-73
2022/02/06 06:46:08;;;;;;;9.30;5.30;;;;;;;5.47;55.31;99226.84;5040797;28;20051;-69
2022/02/06 06:48:36;;;;;;;11.48;5.78;;;;;;;5.50;55.45;99224.00;5039245;28;20042;-70
2022/02/06 06:51:04;;;;;;;7.95;3.97;;;;;;;5.55;55.44;99218.47;4998407;28;20046;-70
2022/02/06 06:53:31;;;;;;;9.85;4.80;;;;;;;5.58;55.35;99207.78;4992829;28;20601;-72
2022/02/06 06:56:02;;;;;;;8.95;5.03;;;;;;;5.65;55.26;99198.53;4987868;28;20047;-73
2022/02/06 06:58:34;;;;;;;8.05;4.20;;;;;;;5.72;55.07;99205.03;4995461;28;20702;-72
2022/02/06 07:01:20;;;;;;;7.60;4.40;;;;;;;5.74;55.11;99200.56;4992541;28;20489;-75
2022/02/06 07:03:50;;;;;;;7.55;4.15;;;;;;;5.79;54.98;99202.00;4989104;28;20050;-76
2022/02/06 07:06:17;;;;;;;12.55;3.97;;;;;;;5.83;54.94;99196.44;4986410;28;20046;-74
2022/02/06 07:08:44;;;;;;;9.05;3.95;;;;;;;5.85;54.78;99207.66;5000832;28;20137;-74
2022/02/06 07:11:11;;;;;;;12.57;4.57;;;;;;;5.89;54.86;99200.44;5030110;28;20045;-72
2022/02/06 07:13:39;;;;;;;8.00;5.28;;;;;;;5.97;54.73;99207.78;5028531;28;20081;-75
2022/02/06 07:16:07;;;;;;;5.18;3.90;;;;;;;5.97;54.72;99199.91;5027552;28;20052;-72
2022/02/06 07:18:34;;;;;;;9.52;4.15;;;;;;;6.00;54.68;99202.34;5027100;28;20128;-74
2022/02/06 07:21:01;;;;;;;6.10;3.42;;;;;;;6.03;54.62;99202.09;5025924;28;20652;-72
2022/02/06 07:23:28;;;;;;;7.43;3.58;;;;;;;6.00;54.52;99195.31;5030698;28;20045;-70
2022/02/06 07:26:00;;;;;;;7.78;3.70;;;;;;;6.05;54.55;99210.69;5033877;28;20122;-71
2022/02/06 07:28:29;;;;;;;9.48;4.45;;;;;;;6.02;54.76;99200.44;5038903;28;20037;-76
2022/02/06 07:30:58;;;;;;;7.38;4.38;;;;;;;6.01;54.68;99196.97;5038998;28;20053;-74
2022/02/06 07:33:27;;;;;;;7.90;4.57;;;;;;;6.06;54.79;99196.66;5042969;28;20087;-72
2022/02/06 07:35:54;;;;;;;8.63;4.22;;;;;;;6.09;54.57;99192.03;5042652;28;20025;-73
2022/02/06 07:38:21;;;;;;;10.50;5.10;;;;;;;6.09;54.61;99192.03;5035383;28;20148;-71
2022/02/06 07:40:48;;;;;;;6.57;3.53;;;;;;;6.11;54.76;99173.56;5026909;28;20136;-73
2022/02/06 07:43:15;;;;;;;7.40;4.00;;;;;;;6.16;54.73;99186.31;5030028;28;20056;-73
2022/02/06 07:45:42;;;;;;;10.63;4.03;;;;;;;6.18;54.80;99169.56;5030457;28;20669;-70
2022/02/06 07:48:12;;;;;;;7.07;4.22;;;;;;;6.17;54.93;99185.41;5032729;28;20128;-75
2022/02/06 07:50:41;;;;;;;9.55;4.97;;;;;;;6.14;55.05;99173.34;5043714;28;20052;-74
2022/02/06 07:53:08;;;;;;;4.82;4.07;;;;;;;6.12;55.24;99176.09;5034411;28;20663;-74
2022/02/06 07:55:36;;;;;;;10.18;4.47;;;;;;;6.08;55.44;99179.84;5032193;28;20092;-76
2022/02/06 07:58:04;;;;;;;5.68;3.90;;;;;;;6.06;55.82;99171.25;5033364;28;20346;-81
2022/02/06 08:00:31;;;;;;;13.10;5.65;;;;;;;6.02;55.98;99172.44;5033362;28;20053;-72
2022/02/06 08:02:58;;;;;;;8.85;4.55;;;;;;;5.99;55.99;99171.81;5029088;28;20128;-70
2022/02/06 08:05:26;;;;;;;4.93;4.40;;;;;;;5.93;56.30;99154.72;5029013;28;20132;-73
2022/02/06 08:07:56;;;;;;;12.07;3.80;;;;;;;5.92;56.49;99147.78;4994148;28;20103;-74
2022/02/06 08:10:23;;;;;;;8.38;5.70;;;;;;;5.89;56.87;99148.03;5028295;28;20807;-72
2022/02/06 08:12:55;;;;;;;11.40;5.43;;;;;;;5.89;56.88;99146.22;5023943;28;20053;-71
2022/02/06 08:15:22;;;;;;;8.45;5.43;;;;;;;5.91;57.01;99135.63;5029113;28;20503;-71
2022/02/06 08:17:49;;;;;;;9.23;5.18;;;;;;;5.92;56.91;99132.91;5035205;28;20145;-72
2022/02/06 08:20:18;;;;;;;12.90;6.15;;;;;;;5.93;57.20;99136.38;5029153;28;20503;-71
2022/02/06 08:22:45;;;;;;;11.38;6.68;;;;;;;5.88;57.54;99128.81;5026123;28;20085;-73
2022/02/06 08:25:15;;;;;;;12.00;6.07;;;;;;;5.92;57.73;99125.06;5032442;28;20045;-73
2022/02/06 08:27:45;;;;;;;11.80;5.97;;;;;;;5.94;57.69;99122.28;5031076;28;20041;-74
2022/02/06 08:30:14;;;;;;;7.28;4.57;;;;;;;5.91;57.93;99115.50;5031957;28;20269;-75
2022/02/06 08:32:42;;;;;;;12.02;5.38;;;;;;;5.93;57.98;99107.53;5032647;28;20037;-74
2022/02/06 08:35:13;;;;;;;15.25;7.05;;;;;;;5.92;58.08;99117.19;5026047;28;20132;-74
2022/02/06 08:37:40;;;;;;;11.73;5.90;;;;;;;6.00;58.10;99110.59;5025086;28;20049;-71
2022/02/06 08:40:12;;;;;;;8.40;5.07;;;;;;;6.09;57.82;99100.28;5023549;28;20049;-74
2022/02/06 08:42:41;;;;;;;9.40;5.00;;;;;;;6.06;57.96;99099.66;5029785;28;20080;-74
2022/02/06 08:45:11;;;;;;;11.52;6.43;;;;;;;6.01;58.06;99107.00;5033240;28;20663;-73
2022/02/06 08:47:38;;;;;;;7.82;4.97;;;;;;;5.95;58.19;99092.53;5031474;28;20091;-72
2022/02/06 08:50:08;;;;;;;10.10;5.65;;;;;;;5.94;58.21;99094.31;5030285;28;20037;-72
2022/02/06 08:52:35;;;;;;;11.55;5.93;;;;;;;5.97;58.15;99097.69;5009118;28;20045;-72
2022/02/06 08:55:04;;;;;;;9.35;5.05;;;;;;;5.98;58.18;99083.63;5032800;28;20079;-70
2022/02/06 08:57:34;;;;;;;10.40;5.72;;;;;;;6.04;58.15;99077.97;5032990;28;20479;-74
2022/02/06 09:00:04;;;;;;;10.00;4.85;;;;;;;6.09;57.86;99081.91;5031462;28;20491;-73
2022/02/06 09:02:31;;;;;;;11.88;6.10;;;;;;;6.13;58.06;99082.53;5034523;28;20703;-71
2022/02/06 09:04:58;;;;;;;11.10;5.22;;;;;;;6.24;57.94;99079.13;5029443;28;20057;-74
2022/02/06 09:07:25;;;;;;;11.43;7.43;;;;;;;6.29;58.05;99072.59;5032161;28;20120;-74
2022/02/06 09:09:57;;;;;;;8.38;5.03;;;;;;;6.41;57.84;99064.75;5035580;28;20045;-72
2022/02/06 09:12:24;;;;;;;11.70;5.95;;;;;;;6.51;57.71;99063.97;5028454;28;20037;-77
2022/02/06 09:14:51;;;;;;;8.07;6.28;;;;;;;6.59;57.68;99057.31;5028082;28;20077;-74
2022/02/06 09:17:20;;;;;;;13.52;6.15;;;;;;;6.66;57.61;99050.63;5025404;28;20141;-71
2022/02/06 09:19:47;;;;;;;8.77;6.70;;;;;;;6.65;57.59;99057.69;5024972;28;20052;-76
2022/02/06 09:22:18;;;;;;;13.98;6.35;;;;;;;6.68;57.96;99049.59;5026478;28;20129;-73
2022/02/06 09:24:46;;;;;;;13.15;6.90;;;;;;;6.72;57.81;99054.59;5023691;28;20081;-72
2022/02/06 09:27:13;;;;;;;9.50;5.55;;;;;;;6.77;57.77;99050.69;5022152;28;20054;-71
2022/02/06 09:29:42;;;;;;;15.50;9.40;;;;;;;6.70;57.96;99057.34;5025799;28;20045;-76
2022/02/06 09:37:06;;;;;;;10.32;6.70;;;;;;;6.86;57.85;99046.50;5036150;28;20565;-72
2022/02/06 09:39:37;;;;;;;14.52;6.38;;;;;;;6.91;57.63;99040.91;5031512;28;20052;-73
2022/02/06 09:42:08;;;;;;;9.63;5.40;;;;;;;6.89;57.59;99044.47;5031184;28;20060;-76
2022/02/06 09:44:36;;;;;;;8.98;6.18;;;;;;;6.78;57.61;99051.50;5030363;28;20049;-73
2022/02/06 09:47:04;;;;;;;11.50;7.00;;;;;;;6.75;57.91;99034.19;5030486;28;20121;-75
2022/02/06 09:49:33;;;;;;;9.75;6.55;;;;;;;6.70;58.02;99034.56;5037697;28;20084;-77
2022/02/06 09:52:01;;;;;;;8.07;4.68;;;;;;;6.66;58.02;99017.38;5036509;28;20693;-73
2022/02/06 09:54:29;;;;;;;10.95;6.60;;;;;;;6.64;58.16;99021.88;5045343;28;20045;-76
2022/02/06 09:57:00;;;;;;;12.35;8.38;;;;;;;6.64;58.15;99027.13;5036380;28;20560;-74
2022/02/06 09:59:30;;;;;;;14.50;6.90;;;;;;;6.65;58.23;99005.22;5034421;28;20500;-70
2022/02/06 10:01:59;;;;;;;9.57;6.25;;;;;;;6.75;57.95;99015.00;5036070;28;20128;-76
2022/02/06 10:04:28;;;;;;;10.18;5.75;;;;;;;6.81;57.92;99019.78;5036904;28;20056;-74
2022/02/06 10:07:01;;;;;;;12.20;6.20;;;;;;;6.82;57.94;99017.03;5031569;28;20488;-74
2022/02/06 10:09:34;;;;;;;11.73;6.90;;;;;;;6.85;57.90;98989.72;5041018;28;20044;-73
2022/02/06 10:12:03;;;;;;;11.65;6.50;;;;;;;6.86;57.95;99007.13;5034832;28;20132;-74
2022/02/06 10:14:30;;;;;;;14.13;8.38;;;;;;;6.87;57.87;98996.53;5032807;28;20145;-72
2022/02/06 10:16:58;;;;;;;16.83;7.65;;;;;;;6.97;57.81;98987.94;5039887;28;20581;-70
2022/02/06 10:19:27;;;;;;;12.63;7.10;;;;;;;6.98;57.59;98990.44;5035034;28;20144;-70
2022/02/06 10:21:56;;;;;;;16.90;9.00;;;;;;;7.02;57.87;98986.63;5033837;28;20483;-75
2022/02/06 10:24:29;;;;;;;12.23;7.25;;;;;;;7.18;57.59;98978.38;5036815;28;20128;-77
2022/02/06 10:29:52;;;;;;;14.02;8.93;;;;;;;7.43;57.25;98964.13;4967209;28;20640;-73
2022/02/06 10:32:19;;;;;;;14.98;9.77;;;;;;;7.44;57.07;98960.56;4965061;28;20047;-76
2022/02/06 10:34:47;;;;;;;12.65;5.95;;;;;;;7.51;57.15;98947.75;4962807;28;20105;-74
2022/02/06 10:37:18;;;;;;;9.68;5.93;;;;;;;7.69;56.88;98941.94;4962887;28;20046;-72
2022/02/06 10:39:58;;;;;;;11.68;7.07;;;;;;;7.75;56.77;98946.72;4962135;28;20443;-75
2022/02/06 10:42:27;;;;;;;14.65;6.95;;;;;;;7.81;56.86;98938.31;4959736;28;20051;-72
2022/02/06 10:45:14;;;;;;;12.70;6.88;;;;;;;7.96;56.57;98936.22;4962702;28;20179;-68
2022/02/06 10:47:42;;;;;;;10.88;5.75;;;;;;;7.94;56.52;98925.84;4958623;28;20053;-75
2022/02/06 10:50:12;;;;;;;12.10;6.65;;;;;;;7.90;56.68;98927.06;4963672;28;20062;-77
2022/02/06 10:52:39;;;;;;;9.88;6.22;;;;;;;7.86;56.73;98928.28;4957960;28;20186;-70
2022/02/06 10:55:08;;;;;;;13.70;7.80;;;;;;;7.77;57.01;98921.97;4964064;28;20679;-72
2022/02/06 10:57:37;;;;;;;7.72;5.60;;;;;;;7.80;56.97;98905.13;4963699;28;20077;-74
2022/02/06 11:00:07;;;;;;;17.48;6.82;;;;;;;7.88;56.77;98900.06;4968534;28;20118;-75
2022/02/06 11:02:39;;;;;;;12.70;6.63;;;;;;;7.97;56.70;98901.91;4971444;28;20617;-74
2022/02/06 11:05:14;;;;;;;12.90;6.93;;;;;;;8.01;56.71;98886.72;4964906;28;20468;-70
2022/02/06 11:07:53;;;;;;;12.55;5.57;;;;;;;8.07;56.54;98880.97;5022967;28;20069;-74
2022/02/06 11:10:23;;;;;;;8.20;5.68;;;;;;;8.05;56.67;98872.38;5042220;28;20083;-75
2022/02/06 11:12:53;;;;;;;14.15;8.05;;;;;;;8.09;56.58;98878.22;5028977;28;20075;-74
2022/02/06 11:15:30;;;;;;;8.80;6.13;;;;;;;8.07;56.59;98875.72;5038391;28;20127;-73
2022/02/06 11:18:10;;;;;;;9.70;5.10;;;;;;;8.04;56.74;98865.44;5035778;28;20050;-71
2022/02/06 11:20:38;;;;;;;8.20;4.80;;;;;;;8.04;56.61;98874.16;5032685;28;20065;-72
2022/02/06 11:23:06;;;;;;;10.18;4.50;;;;;;;8.02;56.57;98844.53;5024717;28;20045;-68
2022/02/06 11:25:37;;;;;;;8.80;5.10;;;;;;;8.02;56.70;98859.47;5024357;28;20548;-74
2022/02/06 11:28:06;;;;;;;12.35;6.68;;;;;;;8.10;56.58;98864.91;5025691;28;20655;-74
2022/02/06 11:30:33;;;;;;;15.77;5.60;;;;;;;8.09;56.47;98858.00;5024855;28;20485;-73
2022/02/06 11:33:01;;;;;;;13.68;6.53;;;;;;;8.09;56.54;98844.03;5024604;28;20045;-74
2022/02/06 11:35:31;;;;;;;9.52;5.05;;;;;;;8.18;56.37;98846.69;5019399;28;20660;-73
2022/02/06 11:44:26;;;;;;;14.35;7.22;;;;;;;8.38;55.88;98831.00;5027368;28;20136;-69
2022/02/06 11:47:05;;;;;;;14.07;6.47;;;;;;;8.41;55.78;98822.84;5028964;28;20052;-72
2022/02/06 11:49:37;;;;;;;14.32;8.13;;;;;;;8.23;55.97;98823.47;5023920;28;20124;-72
2022/02/06 11:52:05;;;;;;;15.00;7.70;;;;;;;8.20;56.23;98822.91;5030957;28;20059;-71
2022/02/06 11:54:34;;;;;;;15.45;7.00;;;;;;;8.13;56.38;98824.38;5033203;28;20129;-69
2022/02/06 11:57:26;;;;;;;8.65;4.75;;;;;;;8.02;56.61;98828.75;5026898;28;20048;-70
2022/02/06 12:00:16;;;;;;;7.47;4.80;;;;;;;7.96;56.67;98825.78;4998446;28;20124;-73
2022/02/06 12:02:44;;;;;;;11.68;6.95;;;;;;;7.93;56.72;98821.66;5029422;28;20049;-76
2022/02/06 12:05:18;;;;;;;13.38;7.70;;;;;;;7.88;57.14;98809.84;5030178;28;20101;-80
2022/02/06 12:07:56;;;;;;;16.60;7.73;;;;;;;7.89;57.03;98801.84;5024105;28;20042;-78
2022/02/06 12:10:44;;;;;;;15.18;8.73;;;;;;;7.82;57.08;98817.28;5030910;28;20061;-77
2022/02/06 12:13:30;;;;;;;13.60;7.13;;;;;;;7.80;57.29;98798.19;5027400;28;20120;-76
2022/02/06 12:16:00;;;;;;;16.15;8.60;;;;;;;7.81;57.35;98792.00;5009122;28;20057;-76
2022/02/06 12:18:29;;;;;;;16.92;9.35;;;;;;;7.81;57.37;98788.50;5010772;28;20501;-72
2022/02/06 12:20:58;;;;;;;24.10;11.30;;;;;;;7.85;57.67;98789.94;5014072;28;20089;-77
2022/02/06 12:23:37;;;;;;;29.45;12.20;;;;;;;7.95;57.40;98782.09;5014244;28;20440;-79
2022/02/06 12:26:27;;;;;;;20.38;10.48;;;;;;;8.03;56.92;98783.09;5021028;28;20057;-80
2022/02/06 12:28:56;;;;;;;21.25;9.88;;;;;;;8.08;57.31;98774.81;5027743;28;20045;-78
2022/02/06 12:31:29;;;;;;;21.27;9.50;;;;;;;8.11;57.21;98779.81;5027715;28;20085;-82
2022/02/06 12:34:10;;;;;;;11.50;6.95;;;;;;;8.10;57.30;98772.03;5026404;28;20049;-78
2022/02/06 12:37:06;;;;;;;17.02;9.18;;;;;;;8.10;57.35;98772.03;5027657;28;20059;-76
2022/02/06 12:39:35;;;;;;;17.52;10.23;;;;;;;8.02;57.51;98762.19;5027008;28;20049;-77
2022/02/06 12:42:07;;;;;;;17.83;8.60;;;;;;;7.97;57.74;98756.50;5028695;28;20149;-77
2022/02/06 12:44:36;;;;;;;13.13;7.97;;;;;;;7.93;58.08;98763.81;5032598;28;20053;-76
2022/02/06 12:47:09;;;;;;;17.83;8.52;;;;;;;7.86;58.33;98749.53;5031637;28;20049;-74
2022/02/06 12:49:38;;;;;;;14.40;5.95;;;;;;;7.91;58.14;98749.16;5027145;28;20120;-72
2022/02/06 12:52:06;;;;;;;12.55;6.28;;;;;;;7.84;58.32;98748.81;5024926;28;20072;-75
2022/02/06 12:54:36;;;;;;;14.55;6.00;;;;;;;7.87;58.26;98752.97;5027249;28;20076;-81
2022/02/06 12:57:03;;;;;;;12.43;6.30;;;;;;;7.81;58.27;98744.69;5027147;28;20579;-72
2022/02/06 12:59:33;;;;;;;13.38;7.13;;;;;;;7.77;58.49;98735.38;5030240;28;20099;-77
2022/02/06 13:02:01;;;;;;;18.92;8.65;;;;;;;7.74;58.54;98730.38;5031159;28;20049;-78
2022/02/06 13:04:31;;;;;;;12.73;7.38;;;;;;;7.71;58.54;98735.06;5030400;28;20103;-73
2022/02/06 13:07:03;;;;;;;21.08;9.23;;;;;;;7.69;58.73;98727.31;5027679;28;20064;-78
2022/02/06 13:09:35;;;;;;;21.10;10.25;;;;;;;7.71;58.81;98732.44;5028471;28;20049;-77
2022/02/06 13:12:09;;;;;;;18.33;6.82;;;;;;;7.74;58.65;98719.03;5031321;28;20050;-79
2022/02/06 13:14:52;;;;;;;18.05;8.27;;;;;;;7.75;58.63;98716.28;5039815;28;20053;-82
2022/02/06 13:17:38;;;;;;;13.48;6.72;;;;;;;7.85;58.46;98701.38;5035427;28;20073;-77
2022/02/06 13:20:17;;;;;;;13.68;7.47;;;;;;;7.93;58.39;98703.34;5034322;28;20104;-75
2022/02/06 13:22:54;;;;;;;16.25;9.18;;;;;;;7.90;58.52;98697.50;5034198;28;20057;-70
2022/02/06 13:25:46;;;;;;;14.23;8.77;;;;;;;7.89;58.57;98701.13;5039608;28;20041;-76